sensor_id;sensor_type;location;lat;lon;timestamp;P1;durP1;ratioP1;P2;durP2;ratioP2
13366;SDS011;6752;52.612;13.630;2024-01-15T00:00:06;15.37;;;9.90;;
13366;SDS011;6752;52.612;13.630;2024-01-15T00:05:09;13.47;;;9.40;;
13366;SDS011;6752;52.612;13.630;2024-01-15T00:10:11;12.47;;;9.37;;
13366;SDS011;6752;52.612;13.630;2024-01-15T00:15:14;14.07;;;9.80;;
13366;SDS011;6752;52.612;13.630;2024-01-15T00:20:16;12.17;;;9.60;;
13366;SDS011;6752;52.612;13.630;2024-01-15T00:25:18;12.50;;;11.20;;
13366;SDS011;6752;52.612;13.630;2024-01-15T00:30:21;11.60;;;9.07;;
13366;SDS011;6752;52.612;13.630;2024-01-15T00:35:23;12.40;;;9.20;;
13366;SDS011;6752;52.612;13.630;2024-01-15T00:40:25;12.40;;;11.05;;
13366;SDS011;6752;52.612;13.630;2024-01-15T00:45:28;13.23;;;9.07;;
13366;SDS011;6752;52.612;13.630;2024-01-15T00:50:30;12.03;;;9.17;;
13366;SDS011;6752;52.612;13.630;2024-01-15T00:55:33;11.40;;;8.53;;
13366;SDS011;6752;52.612;13.630;2024-01-15T01:00:36;12.73;;;8.77;;
13366;SDS011;6752;52.612;13.630;2024-01-15T01:05:38;12.60;;;8.90;;
13366;SDS011;6752;52.612;13.630;2024-01-15T01:10:40;12.87;;;9.53;;
13366;SDS011;6752;52.612;13.630;2024-01-15T01:15:43;12.80;;;8.97;;
13366;SDS011;6752;52.612;13.630;2024-01-15T01:20:45;15.27;;;9.20;;
13366;SDS011;6752;52.612;13.630;2024-01-15T01:25:47;14.00;;;9.63;;
13366;SDS011;6752;52.612;13.630;2024-01-15T01:30:50;13.07;;;9.43;;
13366;SDS011;6752;52.612;13.630;2024-01-15T01:35:52;13.03;;;9.57;;
13366;SDS011;6752;52.612;13.630;2024-01-15T01:40:54;13.68;;;11.60;;
13366;SDS011;6752;52.612;13.630;2024-01-15T01:45:57;11.77;;;8.30;;
13366;SDS011;6752;52.612;13.630;2024-01-15T01:51:03;11.60;;;8.20;;
13366;SDS011;6752;52.612;13.630;2024-01-15T01:56:05;11.83;;;7.80;;
13366;SDS011;6752;52.612;13.630;2024-01-15T02:01:07;11.33;;;8.20;;
13366;SDS011;6752;52.612;13.630;2024-01-15T02:06:10;11.03;;;7.93;;
13366;SDS011;6752;52.612;13.630;2024-01-15T02:11:12;13.17;;;7.90;;
13366;SDS011;6752;52.612;13.630;2024-01-15T02:16:14;10.97;;;7.03;;
13366;SDS011;6752;52.612;13.630;2024-01-15T02:21:17;10.93;;;7.10;;
13366;SDS011;6752;52.612;13.630;2024-01-15T02:26:19;10.40;;;7.40;;
13366;SDS011;6752;52.612;13.630;2024-01-15T02:31:22;10.37;;;7.83;;
13366;SDS011;6752;52.612;13.630;2024-01-15T02:36:24;9.47;;;6.83;;
13366;SDS011;6752;52.612;13.630;2024-01-15T02:41:26;10.93;;;7.23;;
13366;SDS011;6752;52.612;13.630;2024-01-15T02:46:29;12.00;;;7.50;;
13366;SDS011;6752;52.612;13.630;2024-01-15T02:51:31;10.10;;;7.17;;
13366;SDS011;6752;52.612;13.630;2024-01-15T02:56:33;10.70;;;8.40;;
13366;SDS011;6752;52.612;13.630;2024-01-15T03:01:36;8.67;;;5.73;;
13366;SDS011;6752;52.612;13.630;2024-01-15T03:06:38;9.63;;;5.60;;
13366;SDS011;6752;52.612;13.630;2024-01-15T03:11:40;9.63;;;7.05;;
13366;SDS011;6752;52.612;13.630;2024-01-15T03:16:43;9.43;;;5.37;;
13366;SDS011;6752;52.612;13.630;2024-01-15T03:21:45;9.93;;;5.43;;
13366;SDS011;6752;52.612;13.630;2024-01-15T03:26:47;9.83;;;5.10;;
13366;SDS011;6752;52.612;13.630;2024-01-15T03:31:50;9.00;;;4.77;;
13366;SDS011;6752;52.612;13.630;2024-01-15T03:36:52;9.05;;;6.07;;
13366;SDS011;6752;52.612;13.630;2024-01-15T03:41:55;11.23;;;5.23;;
13366;SDS011;6752;52.612;13.630;2024-01-15T03:46:57;10.30;;;5.10;;
13366;SDS011;6752;52.612;13.630;2024-01-15T03:51:59;9.40;;;5.10;;
13366;SDS011;6752;52.612;13.630;2024-01-15T03:57:01;7.63;;;4.97;;
13366;SDS011;6752;52.612;13.630;2024-01-15T04:02:04;9.37;;;5.27;;
13366;SDS011;6752;52.612;13.630;2024-01-15T04:07:06;10.23;;;6.53;;
13366;SDS011;6752;52.612;13.630;2024-01-15T04:12:09;8.50;;;5.00;;
13366;SDS011;6752;52.612;13.630;2024-01-15T04:17:11;10.23;;;5.53;;
13366;SDS011;6752;52.612;13.630;2024-01-15T04:22:13;10.27;;;4.97;;
13366;SDS011;6752;52.612;13.630;2024-01-15T04:27:16;8.37;;;4.90;;
13366;SDS011;6752;52.612;13.630;2024-01-15T04:32:18;11.47;;;4.63;;
13366;SDS011;6752;52.612;13.630;2024-01-15T04:37:20;9.07;;;4.90;;
13366;SDS011;6752;52.612;13.630;2024-01-15T04:42:23;9.10;;;5.10;;
13366;SDS011;6752;52.612;13.630;2024-01-15T04:47:25;9.40;;;4.43;;
13366;SDS011;6752;52.612;13.630;2024-01-15T04:52:27;8.73;;;4.27;;
13366;SDS011;6752;52.612;13.630;2024-01-15T04:57:30;9.47;;;4.40;;
13366;SDS011;6752;52.612;13.630;2024-01-15T05:02:32;10.10;;;4.50;;
13366;SDS011;6752;52.612;13.630;2024-01-15T05:07:34;10.57;;;4.00;;
13366;SDS011;6752;52.612;13.630;2024-01-15T05:12:37;9.83;;;3.93;;
13366;SDS011;6752;52.612;13.630;2024-01-15T05:17:39;9.07;;;4.17;;
13366;SDS011;6752;52.612;13.630;2024-01-15T05:22:41;7.30;;;4.00;;
13366;SDS011;6752;52.612;13.630;2024-01-15T05:27:44;7.63;;;3.70;;
13366;SDS011;6752;52.612;13.630;2024-01-15T05:32:46;9.57;;;3.83;;
13366;SDS011;6752;52.612;13.630;2024-01-15T05:37:49;7.23;;;3.40;;
13366;SDS011;6752;52.612;13.630;2024-01-15T05:42:51;6.43;;;2.80;;
13366;SDS011;6752;52.612;13.630;2024-01-15T05:47:53;5.60;;;2.93;;
13366;SDS011;6752;52.612;13.630;2024-01-15T05:52:56;5.97;;;2.33;;
13366;SDS011;6752;52.612;13.630;2024-01-15T05:57:58;6.63;;;2.60;;
13366;SDS011;6752;52.612;13.630;2024-01-15T06:03:00;6.70;;;2.60;;
13366;SDS011;6752;52.612;13.630;2024-01-15T06:08:03;5.17;;;2.33;;
13366;SDS011;6752;52.612;13.630;2024-01-15T06:13:05;5.57;;;2.83;;
13366;SDS011;6752;52.612;13.630;2024-01-15T06:18:07;6.68;;;2.97;;
13366;SDS011;6752;52.612;13.630;2024-01-15T06:23:10;3.80;;;2.03;;
13366;SDS011;6752;52.612;13.630;2024-01-15T06:28:12;7.73;;;2.00;;
13366;SDS011;6752;52.612;13.630;2024-01-15T06:33:14;5.60;;;1.67;;
13366;SDS011;6752;52.612;13.630;2024-01-15T06:38:17;6.80;;;1.80;;
13366;SDS011;6752;52.612;13.630;2024-01-15T06:43:19;9.03;;;1.80;;
13366;SDS011;6752;52.612;13.630;2024-01-15T06:48:21;4.27;;;1.80;;
13366;SDS011;6752;52.612;13.630;2024-01-15T06:53:24;6.75;;;2.37;;
13366;SDS011;6752;52.612;13.630;2024-01-15T06:58:27;6.13;;;1.80;;
13366;SDS011;6752;52.612;13.630;2024-01-15T07:03:29;4.43;;;1.63;;
13366;SDS011;6752;52.612;13.630;2024-01-15T07:08:32;5.57;;;1.80;;
13366;SDS011;6752;52.612;13.630;2024-01-15T07:13:35;6.97;;;2.83;;
13366;SDS011;6752;52.612;13.630;2024-01-15T07:18:36;7.97;;;2.50;;
13366;SDS011;6752;52.612;13.630;2024-01-15T07:23:39;5.53;;;1.70;;
13366;SDS011;6752;52.612;13.630;2024-01-15T07:28:41;7.37;;;1.90;;
13366;SDS011;6752;52.612;13.630;2024-01-15T07:33:44;6.13;;;1.97;;
13366;SDS011;6752;52.612;13.630;2024-01-15T07:38:46;4.73;;;1.60;;
13366;SDS011;6752;52.612;13.630;2024-01-15T07:43:48;6.17;;;1.83;;
13366;SDS011;6752;52.612;13.630;2024-01-15T07:48:51;6.17;;;2.07;;
13366;SDS011;6752;52.612;13.630;2024-01-15T07:53:53;8.80;;;2.13;;
13366;SDS011;6752;52.612;13.630;2024-01-15T07:58:56;11.50;;;2.33;;
13366;SDS011;6752;52.612;13.630;2024-01-15T08:03:58;7.70;;;1.90;;
13366;SDS011;6752;52.612;13.630;2024-01-15T08:09:00;9.80;;;2.40;;
13366;SDS011;6752;52.612;13.630;2024-01-15T08:14:02;9.63;;;1.93;;
13366;SDS011;6752;52.612;13.630;2024-01-15T08:19:05;8.80;;;2.50;;
13366;SDS011;6752;52.612;13.630;2024-01-15T08:24:07;8.33;;;2.30;;
13366;SDS011;6752;52.612;13.630;2024-01-15T08:29:09;10.17;;;2.43;;
13366;SDS011;6752;52.612;13.630;2024-01-15T08:34:12;7.93;;;2.00;;
13366;SDS011;6752;52.612;13.630;2024-01-15T08:39:14;8.83;;;2.27;;
13366;SDS011;6752;52.612;13.630;2024-01-15T08:44:17;6.43;;;1.70;;
13366;SDS011;6752;52.612;13.630;2024-01-15T08:49:19;10.27;;;2.70;;
13366;SDS011;6752;52.612;13.630;2024-01-15T08:54:21;8.10;;;2.10;;
13366;SDS011;6752;52.612;13.630;2024-01-15T08:59:24;7.13;;;1.67;;
13366;SDS011;6752;52.612;13.630;2024-01-15T09:04:26;6.77;;;1.87;;
13366;SDS011;6752;52.612;13.630;2024-01-15T09:09:28;7.37;;;1.93;;
13366;SDS011;6752;52.612;13.630;2024-01-15T09:14:31;6.47;;;2.23;;
13366;SDS011;6752;52.612;13.630;2024-01-15T09:19:33;5.40;;;2.07;;
13366;SDS011;6752;52.612;13.630;2024-01-15T09:24:35;5.20;;;1.90;;
13366;SDS011;6752;52.612;13.630;2024-01-15T09:29:38;7.65;;;2.33;;
13366;SDS011;6752;52.612;13.630;2024-01-15T09:34:40;9.93;;;1.90;;
13366;SDS011;6752;52.612;13.630;2024-01-15T09:39:42;4.27;;;1.67;;
13366;SDS011;6752;52.612;13.630;2024-01-15T09:44:45;7.55;;;2.55;;
13366;SDS011;6752;52.612;13.630;2024-01-15T09:49:47;6.07;;;1.80;;
13366;SDS011;6752;52.612;13.630;2024-01-15T09:54:49;6.63;;;1.80;;
13366;SDS011;6752;52.612;13.630;2024-01-15T09:59:52;5.87;;;2.10;;
13366;SDS011;6752;52.612;13.630;2024-01-15T10:04:54;6.73;;;2.37;;
13366;SDS011;6752;52.612;13.630;2024-01-15T10:09:56;8.20;;;2.10;;
13366;SDS011;6752;52.612;13.630;2024-01-15T10:14:59;6.13;;;1.97;;
13366;SDS011;6752;52.612;13.630;2024-01-15T10:20:01;4.33;;;1.37;;
13366;SDS011;6752;52.612;13.630;2024-01-15T10:25:04;6.07;;;1.70;;
13366;SDS011;6752;52.612;13.630;2024-01-15T10:30:06;8.87;;;2.90;;
13366;SDS011;6752;52.612;13.630;2024-01-15T10:35:08;9.00;;;2.17;;
13366;SDS011;6752;52.612;13.630;2024-01-15T10:40:11;21.77;;;4.13;;
13366;SDS011;6752;52.612;13.630;2024-01-15T10:45:13;6.37;;;2.03;;
13366;SDS011;6752;52.612;13.630;2024-01-15T10:50:15;4.20;;;1.90;;
13366;SDS011;6752;52.612;13.630;2024-01-15T10:55:18;16.23;;;4.27;;
13366;SDS011;6752;52.612;13.630;2024-01-15T11:00:20;6.57;;;1.63;;
13366;SDS011;6752;52.612;13.630;2024-01-15T11:05:23;3.77;;;1.47;;
13366;SDS011;6752;52.612;13.630;2024-01-15T11:10:38;3.23;;;1.30;;
13366;SDS011;6752;52.612;13.630;2024-01-15T11:26:34;10.43;;;2.37;;
13366;SDS011;6752;52.612;13.630;2024-01-15T11:41:56;3.73;;;0.80;;
13366;SDS011;6752;52.612;13.630;2024-01-15T11:46:58;3.60;;;1.17;;
13366;SDS011;6752;52.612;13.630;2024-01-15T11:52:00;5.80;;;1.60;;
13366;SDS011;6752;52.612;13.630;2024-01-15T11:57:03;15.70;;;3.23;;
13366;SDS011;6752;52.612;13.630;2024-01-15T12:02:05;13.37;;;3.07;;
13366;SDS011;6752;52.612;13.630;2024-01-15T12:07:07;1.83;;;1.03;;
13366;SDS011;6752;52.612;13.630;2024-01-15T12:12:09;2.37;;;1.12;;
13366;SDS011;6752;52.612;13.630;2024-01-15T12:17:12;2.20;;;0.87;;
13366;SDS011;6752;52.612;13.630;2024-01-15T12:22:14;2.53;;;1.10;;
13366;SDS011;6752;52.612;13.630;2024-01-15T12:27:16;1.30;;;1.17;;
13366;SDS011;6752;52.612;13.630;2024-01-15T12:32:19;10.67;;;2.43;;
13366;SDS011;6752;52.612;13.630;2024-01-15T12:37:21;3.70;;;1.27;;
13366;SDS011;6752;52.612;13.630;2024-01-15T12:42:23;14.17;;;3.40;;
13366;SDS011;6752;52.612;13.630;2024-01-15T12:47:26;3.33;;;1.25;;
13366;SDS011;6752;52.612;13.630;2024-01-15T12:52:28;2.33;;;0.73;;
13366;SDS011;6752;52.612;13.630;2024-01-15T12:57:30;39.60;;;6.37;;
13366;SDS011;6752;52.612;13.630;2024-01-15T13:02:33;2.50;;;0.93;;
13366;SDS011;6752;52.612;13.630;2024-01-15T13:07:35;1.50;;;0.98;;
13366;SDS011;6752;52.612;13.630;2024-01-15T13:12:38;5.13;;;3.33;;
13366;SDS011;6752;52.612;13.630;2024-01-15T13:17:40;4.50;;;2.50;;
13366;SDS011;6752;52.612;13.630;2024-01-15T13:22:42;4.70;;;2.47;;
13366;SDS011;6752;52.612;13.630;2024-01-15T13:27:45;4.10;;;1.27;;
13366;SDS011;6752;52.612;13.630;2024-01-15T13:32:47;4.70;;;1.87;;
13366;SDS011;6752;52.612;13.630;2024-01-15T13:37:49;3.27;;;1.00;;
13366;SDS011;6752;52.612;13.630;2024-01-15T13:42:52;1.70;;;0.73;;
13366;SDS011;6752;52.612;13.630;2024-01-15T13:47:54;3.27;;;1.20;;
13366;SDS011;6752;52.612;13.630;2024-01-15T13:52:56;2.67;;;1.03;;
13366;SDS011;6752;52.612;13.630;2024-01-15T13:57:59;1.90;;;1.20;;
13366;SDS011;6752;52.612;13.630;2024-01-15T14:03:01;2.45;;;1.40;;
13366;SDS011;6752;52.612;13.630;2024-01-15T14:08:03;1.70;;;1.00;;
13366;SDS011;6752;52.612;13.630;2024-01-15T14:13:06;1.77;;;0.90;;
13366;SDS011;6752;52.612;13.630;2024-01-15T14:18:08;3.72;;;1.52;;
13366;SDS011;6752;52.612;13.630;2024-01-15T14:23:12;4.33;;;1.13;;
13366;SDS011;6752;52.612;13.630;2024-01-15T14:28:14;3.65;;;1.30;;
13366;SDS011;6752;52.612;13.630;2024-01-15T14:33:16;2.93;;;1.30;;
13366;SDS011;6752;52.612;13.630;2024-01-15T14:38:18;2.73;;;1.17;;
13366;SDS011;6752;52.612;13.630;2024-01-15T14:43:21;3.83;;;1.40;;
13366;SDS011;6752;52.612;13.630;2024-01-15T14:48:23;5.20;;;1.60;;
13366;SDS011;6752;52.612;13.630;2024-01-15T14:53:26;5.07;;;1.70;;
13366;SDS011;6752;52.612;13.630;2024-01-15T14:58:28;3.30;;;1.33;;
13366;SDS011;6752;52.612;13.630;2024-01-15T15:03:30;3.40;;;1.60;;
13366;SDS011;6752;52.612;13.630;2024-01-15T15:08:33;3.30;;;1.30;;
13366;SDS011;6752;52.612;13.630;2024-01-15T15:13:35;2.30;;;1.13;;
13366;SDS011;6752;52.612;13.630;2024-01-15T15:18:37;2.95;;;1.45;;
13366;SDS011;6752;52.612;13.630;2024-01-15T15:23:40;3.40;;;1.33;;
13366;SDS011;6752;52.612;13.630;2024-01-15T15:28:42;3.53;;;1.13;;
13366;SDS011;6752;52.612;13.630;2024-01-15T15:33:44;4.93;;;1.70;;
13366;SDS011;6752;52.612;13.630;2024-01-15T15:38:47;5.07;;;1.20;;
13366;SDS011;6752;52.612;13.630;2024-01-15T15:43:50;3.33;;;1.17;;
13366;SDS011;6752;52.612;13.630;2024-01-15T15:48:52;3.43;;;1.33;;
13366;SDS011;6752;52.612;13.630;2024-01-15T15:53:55;3.63;;;1.10;;
13366;SDS011;6752;52.612;13.630;2024-01-15T15:58:57;2.13;;;1.17;;
13366;SDS011;6752;52.612;13.630;2024-01-15T16:04:00;4.27;;;1.60;;
13366;SDS011;6752;52.612;13.630;2024-01-15T16:09:02;4.13;;;1.10;;
13366;SDS011;6752;52.612;13.630;2024-01-15T16:14:04;2.67;;;1.10;;
13366;SDS011;6752;52.612;13.630;2024-01-15T16:19:07;3.37;;;1.23;;
13366;SDS011;6752;52.612;13.630;2024-01-15T16:24:09;4.37;;;1.53;;
13366;SDS011;6752;52.612;13.630;2024-01-15T16:29:12;2.67;;;1.40;;
13366;SDS011;6752;52.612;13.630;2024-01-15T16:34:14;3.90;;;1.73;;
13366;SDS011;6752;52.612;13.630;2024-01-15T16:39:16;3.70;;;1.80;;
13366;SDS011;6752;52.612;13.630;2024-01-15T16:44:19;3.13;;;1.60;;
13366;SDS011;6752;52.612;13.630;2024-01-15T16:49:21;3.33;;;1.33;;
13366;SDS011;6752;52.612;13.630;2024-01-15T16:54:23;6.87;;;2.10;;
13366;SDS011;6752;52.612;13.630;2024-01-15T16:59:26;4.17;;;1.70;;
13366;SDS011;6752;52.612;13.630;2024-01-15T17:04:28;4.37;;;1.77;;
13366;SDS011;6752;52.612;13.630;2024-01-15T17:09:30;2.90;;;1.50;;
13366;SDS011;6752;52.612;13.630;2024-01-15T17:14:33;4.57;;;1.50;;
13366;SDS011;6752;52.612;13.630;2024-01-15T17:19:35;4.23;;;1.93;;
13366;SDS011;6752;52.612;13.630;2024-01-15T17:24:37;4.40;;;2.00;;
13366;SDS011;6752;52.612;13.630;2024-01-15T17:29:40;6.87;;;1.90;;
13366;SDS011;6752;52.612;13.630;2024-01-15T17:34:42;5.10;;;1.47;;
13366;SDS011;6752;52.612;13.630;2024-01-15T17:39:44;2.67;;;1.30;;
13366;SDS011;6752;52.612;13.630;2024-01-15T17:44:47;3.37;;;1.20;;
13366;SDS011;6752;52.612;13.630;2024-01-15T17:49:49;5.17;;;1.37;;
13366;SDS011;6752;52.612;13.630;2024-01-15T17:54:52;6.43;;;1.70;;
13366;SDS011;6752;52.612;13.630;2024-01-15T17:59:54;4.57;;;1.40;;
13366;SDS011;6752;52.612;13.630;2024-01-15T18:04:56;3.67;;;1.40;;
13366;SDS011;6752;52.612;13.630;2024-01-15T18:09:59;4.63;;;1.50;;
13366;SDS011;6752;52.612;13.630;2024-01-15T18:15:01;3.37;;;1.23;;
13366;SDS011;6752;52.612;13.630;2024-01-15T18:20:03;2.55;;;1.30;;
13366;SDS011;6752;52.612;13.630;2024-01-15T18:25:06;3.57;;;1.63;;
13366;SDS011;6752;52.612;13.630;2024-01-15T18:30:08;5.27;;;1.97;;
13366;SDS011;6752;52.612;13.630;2024-01-15T18:35:11;2.80;;;1.17;;
13366;SDS011;6752;52.612;13.630;2024-01-15T18:40:13;2.73;;;1.23;;
13366;SDS011;6752;52.612;13.630;2024-01-15T18:45:15;3.23;;;1.30;;
13366;SDS011;6752;52.612;13.630;2024-01-15T18:50:18;3.57;;;1.40;;
13366;SDS011;6752;52.612;13.630;2024-01-15T18:55:20;3.63;;;1.40;;
13366;SDS011;6752;52.612;13.630;2024-01-15T19:00:22;2.13;;;1.10;;
13366;SDS011;6752;52.612;13.630;2024-01-15T19:05:25;2.87;;;1.30;;
13366;SDS011;6752;52.612;13.630;2024-01-15T19:10:27;4.03;;;1.50;;
13366;SDS011;6752;52.612;13.630;2024-01-15T19:15:29;3.83;;;1.30;;
13366;SDS011;6752;52.612;13.630;2024-01-15T19:20:32;4.23;;;1.37;;
13366;SDS011;6752;52.612;13.630;2024-01-15T19:25:34;3.33;;;1.23;;
13366;SDS011;6752;52.612;13.630;2024-01-15T19:30:36;4.50;;;1.50;;
13366;SDS011;6752;52.612;13.630;2024-01-15T19:35:39;3.25;;;1.20;;
13366;SDS011;6752;52.612;13.630;2024-01-15T19:40:41;4.70;;;1.30;;
13366;SDS011;6752;52.612;13.630;2024-01-15T19:45:43;3.27;;;1.10;;
13366;SDS011;6752;52.612;13.630;2024-01-15T19:50:46;4.67;;;1.40;;
13366;SDS011;6752;52.612;13.630;2024-01-15T19:55:48;3.27;;;1.30;;
13366;SDS011;6752;52.612;13.630;2024-01-15T20:00:51;3.73;;;1.20;;
13366;SDS011;6752;52.612;13.630;2024-01-15T20:05:53;2.03;;;1.20;;
13366;SDS011;6752;52.612;13.630;2024-01-15T20:10:55;3.47;;;1.40;;
13366;SDS011;6752;52.612;13.630;2024-01-15T20:15:58;2.47;;;1.23;;
13366;SDS011;6752;52.612;13.630;2024-01-15T20:21:00;4.27;;;1.20;;
13366;SDS011;6752;52.612;13.630;2024-01-15T20:26:03;3.03;;;1.10;;
13366;SDS011;6752;52.612;13.630;2024-01-15T20:31:05;3.20;;;1.10;;
13366;SDS011;6752;52.612;13.630;2024-01-15T20:36:07;2.77;;;1.00;;
13366;SDS011;6752;52.612;13.630;2024-01-15T20:41:09;3.03;;;1.27;;
13366;SDS011;6752;52.612;13.630;2024-01-15T20:46:12;5.10;;;1.30;;
13366;SDS011;6752;52.612;13.630;2024-01-15T20:51:14;5.03;;;1.43;;
13366;SDS011;6752;52.612;13.630;2024-01-15T20:56:16;5.80;;;1.17;;
13366;SDS011;6752;52.612;13.630;2024-01-15T21:01:19;2.77;;;1.40;;
13366;SDS011;6752;52.612;13.630;2024-01-15T21:06:21;4.53;;;1.40;;
13366;SDS011;6752;52.612;13.630;2024-01-15T21:11:24;6.20;;;1.53;;
13366;SDS011;6752;52.612;13.630;2024-01-15T21:16:26;3.27;;;1.43;;
13366;SDS011;6752;52.612;13.630;2024-01-15T21:21:28;3.00;;;1.20;;
13366;SDS011;6752;52.612;13.630;2024-01-15T21:26:31;3.10;;;1.43;;
13366;SDS011;6752;52.612;13.630;2024-01-15T21:31:37;1.60;;;0.93;;
13366;SDS011;6752;52.612;13.630;2024-01-15T21:36:38;4.97;;;1.30;;
13366;SDS011;6752;52.612;13.630;2024-01-15T21:41:43;2.03;;;1.30;;
13366;SDS011;6752;52.612;13.630;2024-01-15T21:46:46;2.43;;;1.20;;
13366;SDS011;6752;52.612;13.630;2024-01-15T21:51:48;4.47;;;1.30;;
13366;SDS011;6752;52.612;13.630;2024-01-15T21:56:50;5.27;;;1.57;;
13366;SDS011;6752;52.612;13.630;2024-01-15T22:01:53;4.03;;;1.40;;
13366;SDS011;6752;52.612;13.630;2024-01-15T22:06:55;4.73;;;1.60;;
13366;SDS011;6752;52.612;13.630;2024-01-15T22:11:57;3.83;;;1.17;;
13366;SDS011;6752;52.612;13.630;2024-01-15T22:17:00;3.27;;;1.10;;
13366;SDS011;6752;52.612;13.630;2024-01-15T22:22:02;1.80;;;1.40;;
13366;SDS011;6752;52.612;13.630;2024-01-15T22:27:05;3.03;;;1.35;;
13366;SDS011;6752;52.612;13.630;2024-01-15T22:32:07;2.07;;;1.30;;
13366;SDS011;6752;52.612;13.630;2024-01-15T22:37:09;1.90;;;1.10;;
13366;SDS011;6752;52.612;13.630;2024-01-15T22:42:11;3.73;;;1.43;;
13366;SDS011;6752;52.612;13.630;2024-01-15T22:47:14;1.90;;;1.17;;
13366;SDS011;6752;52.612;13.630;2024-01-15T22:52:16;2.60;;;1.50;;
13366;SDS011;6752;52.612;13.630;2024-01-15T22:57:18;2.60;;;1.30;;
13366;SDS011;6752;52.612;13.630;2024-01-15T23:02:21;3.13;;;1.20;;
13366;SDS011;6752;52.612;13.630;2024-01-15T23:07:23;2.40;;;1.00;;
13366;SDS011;6752;52.612;13.630;2024-01-15T23:12:26;3.70;;;1.30;;
13366;SDS011;6752;52.612;13.630;2024-01-15T23:17:28;2.90;;;1.20;;
13366;SDS011;6752;52.612;13.630;2024-01-15T23:22:30;2.50;;;1.23;;
13366;SDS011;6752;52.612;13.630;2024-01-15T23:27:33;1.90;;;1.10;;
13366;SDS011;6752;52.612;13.630;2024-01-15T23:32:35;2.30;;;1.03;;
13366;SDS011;6752;52.612;13.630;2024-01-15T23:37:37;2.37;;;1.40;;
13366;SDS011;6752;52.612;13.630;2024-01-15T23:42:40;2.97;;;1.30;;
13366;SDS011;6752;52.612;13.630;2024-01-15T23:47:42;2.90;;;1.60;;
13366;SDS011;6752;52.612;13.630;2024-01-15T23:52:44;3.40;;;1.47;;
13366;SDS011;6752;52.612;13.630;2024-01-15T23:57:47;2.90;;;1.20;;
